Back to Top

Language: 

My Weather Underground Personal Weather Station Historical Data with Graphs...

Delerius Weather Station Historical Data
Daily Summary for November 9, 2017 Units:  Metric    English   Both
« Previous Day
Next Day »
Daily Weekly Monthly Yearly Custom
  High: Low: Average:
Temperature: 13.6 °C 7.2 °C 10.3 °C
Dew Point: 10.4 °C 5.1 °C 7.4 °C
Humidity: 93 % 61 % 82 %
Wind Speed: 22.5 km/h 0 km/h 11.7 km/h
Wind Gust: 37 km/h - -
Wind:- - West
Pressure: 1022.2 hPa 1017.2 hPa -
Precipitation: 0 mm    
Historical Graphs
 
 
Tabular Data for November 9, 2017
Time Temperature Dew Point Pressure Wind Wind Speed Wind Gust Humidity Rainfall Rate (Hourly) solar Conditions
00:04 7.2 °C 5.7 °C 1020.9 hPa West 3.2 km/h 8 km/h 90 % 0 mm 0 W/m2
00:09 7.6 °C 6.1 °C 1021.2 hPa West 8 km/h 11.3 km/h 90 % 0 mm 0 W/m2
00:14 7.8 °C 6.1 °C 1020.9 hPa West 4.8 km/h 11.3 km/h 89 % 0 mm 0 W/m2
00:19 8.1 °C 6.4 °C 1020.9 hPa WSW 14.5 km/h 25.7 km/h 89 % 0 mm 0 W/m2
00:24 8.4 °C 6.5 °C 1020.9 hPa WSW 11.3 km/h 17.7 km/h 88 % 0 mm 0 W/m2
00:29 8.6 °C 6.7 °C 1020.9 hPa WSW 14.5 km/h 24.1 km/h 88 % 0 mm 0 W/m2
00:34 8.7 °C 6.7 °C 1020.5 hPa SW 11.3 km/h 17.7 km/h 87 % 0 mm 0 W/m2
00:39 8.8 °C 6.8 °C 1020.5 hPa SW 12.9 km/h 17.7 km/h 87 % 0 mm 0 W/m2
00:44 8.8 °C 6.8 °C 1020.5 hPa SW 11.3 km/h 19.3 km/h 87 % 0 mm 0 W/m2
00:49 8.8 °C 6.8 °C 1020.5 hPa SW 8 km/h 12.9 km/h 87 % 0 mm 0 W/m2
00:54 8.8 °C 6.9 °C 1020.5 hPa WSW 9.7 km/h 14.5 km/h 88 % 0 mm 0 W/m2
00:59 8.9 °C 7 °C 1020.5 hPa WSW 11.3 km/h 17.7 km/h 88 % 0 mm 0 W/m2
01:04 8.9 °C 7 °C 1020.5 hPa WSW 8 km/h 12.9 km/h 88 % 0 mm 0 W/m2
01:09 9.1 °C 7.4 °C 1020.2 hPa WSW 14.5 km/h 24.1 km/h 89 % 0 mm 0 W/m2
01:14 9.2 °C 7.5 °C 1020.2 hPa West 16.1 km/h 22.5 km/h 89 % 0 mm 0 W/m2
01:19 9.3 °C 7.6 °C 1020.2 hPa West 11.3 km/h 17.7 km/h 89 % 0 mm 0 W/m2
01:24 9.3 °C 7.6 °C 1020.2 hPa West 14.5 km/h 24.1 km/h 89 % 0 mm 0 W/m2
01:29 9.3 °C 7.6 °C 1019.9 hPa WSW 12.9 km/h 19.3 km/h 89 % 0 mm 0 W/m2
01:34 9.3 °C 7.6 °C 1019.9 hPa WSW 16.1 km/h 22.5 km/h 89 % 0 mm 0 W/m2
01:39 9.3 °C 7.6 °C 1019.9 hPa WSW 12.9 km/h 25.7 km/h 89 % 0 mm 0 W/m2
01:44 9.3 °C 7.6 °C 1019.9 hPa WSW 14.5 km/h 19.3 km/h 89 % 0 mm 0 W/m2
01:49 9.3 °C 7.6 °C 1019.9 hPa WSW 12.9 km/h 29 km/h 89 % 0 mm 0 W/m2
01:55 9.3 °C 7.6 °C 1019.9 hPa West 11.3 km/h 19.3 km/h 89 % 0 mm 0 W/m2
02:00 9.3 °C 7.6 °C 1019.9 hPa WSW 11.3 km/h 16.1 km/h 89 % 0 mm 0 W/m2
02:05 9.3 °C 7.6 °C 1019.9 hPa WSW 14.5 km/h 20.9 km/h 89 % 0 mm 0 W/m2
02:10 9.4 °C 7.8 °C 1019.9 hPa West 12.9 km/h 19.3 km/h 90 % 0 mm 0 W/m2
02:15 9.5 °C 7.8 °C 1019.9 hPa WSW 11.3 km/h 19.3 km/h 89 % 0 mm 0 W/m2
02:20 9.5 °C 7.8 °C 1019.5 hPa WSW 11.3 km/h 14.5 km/h 89 % 0 mm 0 W/m2
02:26 9.4 °C 7.7 °C 1019.5 hPa WSW 9.7 km/h 17.7 km/h 89 % 0 mm 0 W/m2
02:31 9.4 °C 7.8 °C 1019.9 hPa West 14.5 km/h 20.9 km/h 90 % 0 mm 0 W/m2
02:36 9.6 °C 8.1 °C 1019.9 hPa West 14.5 km/h 22.5 km/h 90 % 0 mm 0 W/m2
02:41 9.7 °C 8.1 °C 1019.9 hPa West 14.5 km/h 22.5 km/h 90 % 0 mm 0 W/m2
02:46 9.8 °C 8.2 °C 1019.5 hPa WSW 11.3 km/h 22.5 km/h 90 % 0 mm 0 W/m2
02:51 9.8 °C 8.2 °C 1019.5 hPa WSW 14.5 km/h 24.1 km/h 90 % 0 mm 0 W/m2
02:56 9.8 °C 8.2 °C 1019.2 hPa WSW 14.5 km/h 22.5 km/h 90 % 0 mm 0 W/m2
03:01 9.9 °C 8.3 °C 1019.5 hPa WSW 14.5 km/h 25.7 km/h 90 % 0 mm 0 W/m2
03:06 9.9 °C 8.3 °C 1019.5 hPa WSW 16.1 km/h 24.1 km/h 90 % 0 mm 0 W/m2
03:11 10 °C 8.4 °C 1019.5 hPa WSW 17.7 km/h 29 km/h 90 % 0 mm 0 W/m2
03:17 10.1 °C 8.6 °C 1019.2 hPa WSW 19.3 km/h 32.2 km/h 90 % 0 mm 0 W/m2
03:19 10.1 °C 8.6 °C 1019.2 hPa WSW 16.1 km/h 32.2 km/h 90 % 0 mm 0 W/m2
03:22 10.1 °C 8.6 °C 1019.2 hPa WSW 14.5 km/h 24.1 km/h 90 % 0 mm 0 W/m2
03:23 10.1 °C 8.6 °C 1019.2 hPa WSW 16.1 km/h 24.1 km/h 90 % 0 mm 0 W/m2
03:28 10.1 °C 8.6 °C 1019.2 hPa West 17.7 km/h 32.2 km/h 90 % 0 mm 0 W/m2
03:29 10 °C 8.4 °C 1019.2 hPa West 19.3 km/h 32.2 km/h 90 % 0 mm 0 W/m2
03:33 9.9 °C 8.5 °C 1019.2 hPa West 17.7 km/h 25.7 km/h 91 % 0 mm 0 W/m2
03:38 9.8 °C 8.4 °C 1019.2 hPa West 16.1 km/h 25.7 km/h 91 % 0 mm 0 W/m2
03:40 9.8 °C 8.4 °C 1019.2 hPa West 12.9 km/h 19.3 km/h 91 % 0 mm 0 W/m2
03:43 9.8 °C 8.4 °C 1019.5 hPa West 14.5 km/h 20.9 km/h 91 % 0 mm 0 W/m2
03:48 9.7 °C 8.3 °C 1019.2 hPa West 14.5 km/h 20.9 km/h 91 % 0 mm 0 W/m2
03:53 9.8 °C 8.6 °C 1019.5 hPa West 17.7 km/h 25.7 km/h 92 % 0 mm 0 W/m2
03:58 9.8 °C 8.6 °C 1019.2 hPa WSW 22.5 km/h 33.8 km/h 92 % 0 mm 0 W/m2
04:03 9.9 °C 8.7 °C 1018.8 hPa WSW 17.7 km/h 25.7 km/h 92 % 0 mm 0 W/m2
04:08 9.9 °C 8.5 °C 1019.2 hPa West 17.7 km/h 29 km/h 91 % 0 mm 0 W/m2
04:13 10 °C 8.6 °C 1019.2 hPa West 14.5 km/h 24.1 km/h 91 % 0 mm 0 W/m2
04:18 10.1 °C 8.7 °C 1019.2 hPa West 14.5 km/h 24.1 km/h 91 % 0 mm 0 W/m2
04:28 10.2 °C 8.8 °C 1019.2 hPa WSW 11.3 km/h 17.7 km/h 91 % 0 mm 0 W/m2
04:33 10.2 °C 8.8 °C 1019.2 hPa WSW 9.7 km/h 19.3 km/h 91 % 0 mm 0 W/m2
04:38 10.3 °C 8.9 °C 1019.2 hPa WSW 14.5 km/h 24.1 km/h 91 % 0 mm 0 W/m2
04:43 10.4 °C 9 °C 1018.8 hPa West 14.5 km/h 22.5 km/h 91 % 0 mm 0 W/m2
04:48 10.4 °C 9 °C 1019.2 hPa West 16.1 km/h 22.5 km/h 91 % 0 mm 0 W/m2
04:54 10.4 °C 9 °C 1019.2 hPa West 11.3 km/h 19.3 km/h 91 % 0 mm 0 W/m2
04:59 10.4 °C 9 °C 1019.2 hPa West 9.7 km/h 16.1 km/h 91 % 0 mm 0 W/m2
05:04 10.4 °C 9 °C 1019.2 hPa West 9.7 km/h 17.7 km/h 91 % 0 mm 0 W/m2
05:09 10.4 °C 9 °C 1018.8 hPa West 11.3 km/h 19.3 km/h 91 % 0 mm 0 W/m2
05:14 10.4 °C 9 °C 1018.8 hPa West 12.9 km/h 17.7 km/h 91 % 0 mm 0 W/m2
05:19 10.4 °C 9 °C 1018.5 hPa West 14.5 km/h 20.9 km/h 91 % 0 mm 0 W/m2
05:24 10.4 °C 9 °C 1018.8 hPa West 11.3 km/h 20.9 km/h 91 % 0 mm 0 W/m2
05:29 10.4 °C 9.2 °C 1018.8 hPa West 11.3 km/h 19.3 km/h 92 % 0 mm 0 W/m2
05:34 10.4 °C 9.2 °C 1018.5 hPa West 14.5 km/h 30.6 km/h 92 % 0 mm 0 W/m2
05:35 10.4 °C 9.2 °C 1018.8 hPa West 14.5 km/h 30.6 km/h 92 % 0 mm 0 W/m2
05:40 10.5 °C 9.3 °C 1018.5 hPa West 16.1 km/h 24.1 km/h 92 % 0 mm 0 W/m2
05:45 10.6 °C 9.3 °C 1018.5 hPa West 11.3 km/h 25.7 km/h 92 % 0 mm 0 W/m2
05:50 10.6 °C 9.3 °C 1018.5 hPa West 19.3 km/h 30.6 km/h 92 % 0 mm 0 W/m2
05:55 10.7 °C 9.4 °C 1018.5 hPa West 14.5 km/h 24.1 km/h 92 % 0 mm 0 W/m2
06:00 10.7 °C 9.4 °C 1018.8 hPa West 14.5 km/h 24.1 km/h 92 % 0 mm 0 W/m2
06:05 10.7 °C 9.4 °C 1018.8 hPa West 12.9 km/h 20.9 km/h 92 % 0 mm 0 W/m2
06:10 10.7 °C 9.4 °C 1018.8 hPa West 9.7 km/h 16.1 km/h 92 % 0 mm 0 W/m2
06:15 10.7 °C 9.4 °C 1018.8 hPa West 9.7 km/h 16.1 km/h 92 % 0 mm 0 W/m2
06:20 10.8 °C 9.6 °C 1018.8 hPa WSW 9.7 km/h 17.7 km/h 92 % 0 mm 0 W/m2
06:25 10.8 °C 9.6 °C 1018.8 hPa WSW 11.3 km/h 16.1 km/h 92 % 0 mm 0 W/m2
06:30 10.8 °C 9.6 °C 1018.8 hPa WSW 9.7 km/h 14.5 km/h 92 % 0 mm 0 W/m2
06:35 10.8 °C 9.6 °C 1018.8 hPa SW 9.7 km/h 17.7 km/h 92 % 0 mm 0 W/m2
06:40 10.9 °C 9.7 °C 1019.2 hPa WSW 9.7 km/h 14.5 km/h 92 % 0 mm 0 W/m2
06:45 10.8 °C 9.6 °C 1018.8 hPa SW 8 km/h 12.9 km/h 92 % 0 mm 0 W/m2
06:50 10.9 °C 9.7 °C 1018.8 hPa WSW 8 km/h 12.9 km/h 92 % 0 mm 0 W/m2
06:55 10.9 °C 9.7 °C 1018.8 hPa West 8 km/h 11.3 km/h 92 % 0 mm 0 W/m2
07:00 10.9 °C 9.8 °C 1018.8 hPa WSW 9.7 km/h 14.5 km/h 93 % 0 mm 0 W/m2
07:05 10.9 °C 9.8 °C 1018.8 hPa West 11.3 km/h 14.5 km/h 93 % 0 mm 0 W/m2
07:10 11 °C 9.9 °C 1018.8 hPa West 9.7 km/h 20.9 km/h 93 % 0 mm 0 W/m2
07:15 11.1 °C 10 °C 1018.8 hPa WSW 6.4 km/h 11.3 km/h 93 % 0 mm 0 W/m2
07:20 11.2 °C 9.9 °C 1018.8 hPa SW 6.4 km/h 11.3 km/h 92 % 0 mm 0 W/m2
07:25 11.1 °C 9.8 °C 1018.8 hPa WSW 9.7 km/h 14.5 km/h 92 % 0 mm 0 W/m2
07:30 11.2 °C 9.9 °C 1018.8 hPa WSW 8 km/h 14.5 km/h 92 % 0 mm 0 W/m2
07:35 11.2 °C 9.9 °C 1019.2 hPa West 1.6 km/h 6.4 km/h 92 % 0 mm 0 W/m2
07:40 11.2 °C 9.9 °C 1019.2 hPa West 8 km/h 17.7 km/h 92 % 0 mm 5 W/m2
07:45 11.3 °C 10.1 °C 1019.2 hPa West 11.3 km/h 17.7 km/h 92 % 0 mm 7 W/m2
07:50 11.4 °C 10.2 °C 1019.2 hPa West 3.2 km/h 8 km/h 92 % 0 mm 11 W/m2
07:55 11.5 °C 10.1 °C 1019.2 hPa WNW 11.3 km/h 19.3 km/h 91 % 0 mm 12 W/m2
08:00 11.6 °C 10.2 °C 1019.2 hPa West 11.3 km/h 16.1 km/h 91 % 0 mm 14 W/m2
08:05 11.7 °C 10.1 °C 1019.2 hPa WSW 4.8 km/h 9.7 km/h 90 % 0 mm 18 W/m2
08:10 11.8 °C 10.2 °C 1019.2 hPa WNW 9.7 km/h 16.1 km/h 90 % 0 mm 23 W/m2
08:15 11.8 °C 10.2 °C 1019.2 hPa West 6.4 km/h 12.9 km/h 90 % 0 mm 32 W/m2
08:21 11.9 °C 10.2 °C 1019.2 hPa WSW 12.9 km/h 30.6 km/h 89 % 0 mm 28 W/m2
08:26 12.1 °C 10.3 °C 1019.2 hPa West 14.5 km/h 22.5 km/h 89 % 0 mm 28 W/m2
08:31 12.2 °C 10.3 °C 1019.2 hPa WSW 9.7 km/h 16.1 km/h 88 % 0 mm 25 W/m2
08:41 12.3 °C 10.4 °C 1019.5 hPa SW 8 km/h 16.1 km/h 88 % 0 mm 26 W/m2
08:46 12.3 °C 10.4 °C 1019.5 hPa WSW 12.9 km/h 20.9 km/h 88 % 0 mm 23 W/m2
08:51 12.3 °C 10.4 °C 1019.5 hPa West 14.5 km/h 20.9 km/h 88 % 0 mm 37 W/m2
08:56 12.3 °C 10.2 °C 1019.5 hPa West 16.1 km/h 29 km/h 87 % 0 mm 30 W/m2
09:01 12.4 °C 10.3 °C 1019.5 hPa West 17.7 km/h 33.8 km/h 87 % 0 mm 37 W/m2
09:06 12.4 °C 10.3 °C 1019.5 hPa West 6.4 km/h 17.7 km/h 87 % 0 mm 39 W/m2
09:11 12.4 °C 10.3 °C 1019.5 hPa West 11.3 km/h 19.3 km/h 87 % 0 mm 56 W/m2
09:16 12.4 °C 10.3 °C 1019.5 hPa WNW 12.9 km/h 20.9 km/h 87 % 0 mm 83 W/m2
09:21 12.4 °C 10.1 °C 1019.2 hPa West 16.1 km/h 24.1 km/h 86 % 0 mm 95 W/m2
09:26 12.5 °C 10.2 °C 1019.2 hPa WNW 16.1 km/h 29 km/h 86 % 0 mm 98 W/m2
09:31 12.5 °C 10.2 °C 1019.2 hPa WNW 16.1 km/h 24.1 km/h 86 % 0 mm 97 W/m2
09:36 12.6 °C 10.3 °C 1019.5 hPa West 17.7 km/h 33.8 km/h 86 % 0 mm 63 W/m2
09:41 12.6 °C 10.2 °C 1019.5 hPa WNW 19.3 km/h 30.6 km/h 85 % 0 mm 60 W/m2
09:46 12.6 °C 10.2 °C 1019.5 hPa WNW 20.9 km/h 30.6 km/h 85 % 0 mm 97 W/m2
09:51 12.6 °C 9.9 °C 1019.9 hPa WNW 20.9 km/h 37 km/h 84 % 0 mm 79 W/m2
09:56 12.6 °C 9.9 °C 1019.9 hPa WNW 14.5 km/h 20.9 km/h 84 % 0 mm 56 W/m2
10:01 12.6 °C 9.9 °C 1019.9 hPa WNW 16.1 km/h 25.7 km/h 84 % 0 mm 39 W/m2
10:06 12.6 °C 10.2 °C 1019.9 hPa WNW 14.5 km/h 22.5 km/h 85 % 0 mm 32 W/m2
10:11 12.5 °C 10.1 °C 1020.2 hPa WNW 16.1 km/h 25.7 km/h 85 % 0 mm 49 W/m2
10:16 12.4 °C 9.9 °C 1020.2 hPa WNW 17.7 km/h 30.6 km/h 85 % 0 mm 49 W/m2
10:21 12.3 °C 9.7 °C 1020.5 hPa WNW 17.7 km/h 29 km/h 84 % 0 mm 100 W/m2
10:26 12.3 °C 9.7 °C 1020.5 hPa WNW 12.9 km/h 17.7 km/h 84 % 0 mm 104 W/m2
10:31 12.3 °C 9.7 °C 1020.5 hPa WNW 14.5 km/h 22.5 km/h 84 % 0 mm 60 W/m2
10:37 12.2 °C 9.6 °C 1020.5 hPa NW 16.1 km/h 32.2 km/h 84 % 0 mm 65 W/m2
10:42 12.2 °C 9.6 °C 1020.5 hPa NW 9.7 km/h 22.5 km/h 84 % 0 mm 93 W/m2
11:13 11.9 °C 8 °C 1020.5 hPa NNW 11.3 km/h 14.5 km/h 77 % 0 mm 128 W/m2
11:18 11.8 °C 7.9 °C 1020.5 hPa NNW 8 km/h 12.9 km/h 77 % 0 mm 135 W/m2
11:23 11.8 °C 7.9 °C 1020.5 hPa NNW 9.7 km/h 22.5 km/h 77 % 0 mm 190 W/m2
11:28 11.9 °C 7.8 °C 1020.5 hPa NNW 9.7 km/h 19.3 km/h 76 % 0 mm 287 W/m2
11:33 12 °C 7.7 °C 1020.5 hPa North 9.7 km/h 17.7 km/h 75 % 0 mm 179 W/m2
11:38 12.1 °C 7.8 °C 1020.5 hPa NNW 3.2 km/h 9.7 km/h 75 % 0 mm 274 W/m2
11:40 12.1 °C 7.8 °C 1020.5 hPa NNW 4.8 km/h 9.7 km/h 75 % 0 mm 216 W/m2
11:45 12.3 °C 8 °C 1020.5 hPa WNW 4.8 km/h 11.3 km/h 75 % 0 mm 330 W/m2
11:50 12.6 °C 8.1 °C 1020.5 hPa NW 1.6 km/h 11.3 km/h 74 % 0 mm 338 W/m2
11:55 12.8 °C 8.1 °C 1020.5 hPa WSW 4.8 km/h 8 km/h 73 % 0 mm 301 W/m2
12:00 12.9 °C 7.8 °C 1020.5 hPa North 8 km/h 20.9 km/h 71 % 0 mm 179 W/m2
12:05 12.7 °C 7.4 °C 1020.9 hPa NW 14.5 km/h 24.1 km/h 70 % 0 mm 292 W/m2
12:10 12.7 °C 7.4 °C 1020.9 hPa NW 9.7 km/h 17.7 km/h 70 % 0 mm 279 W/m2
12:15 12.8 °C 7.7 °C 1020.9 hPa NW 4.8 km/h 12.9 km/h 71 % 0 mm 343 W/m2
12:20 13 °C 7.7 °C 1020.9 hPa NW 8 km/h 14.5 km/h 70 % 0 mm 269 W/m2
12:25 13 °C 7.2 °C 1020.5 hPa NW 11.3 km/h 20.9 km/h 68 % 0 mm 265 W/m2
12:30 13.1 °C 7.3 °C 1020.9 hPa NW 9.7 km/h 24.1 km/h 68 % 0 mm 364 W/m2
12:35 13.1 °C 7.1 °C 1020.9 hPa WNW 16.1 km/h 29 km/h 67 % 0 mm 352 W/m2
12:40 13.2 °C 7.2 °C 1020.9 hPa NW 16.1 km/h 25.7 km/h 67 % 0 mm 359 W/m2
12:45 13.3 °C 7.3 °C 1020.9 hPa NW 17.7 km/h 33.8 km/h 67 % 0 mm 362 W/m2
12:50 13.2 °C 7.2 °C 1020.9 hPa NW 17.7 km/h 25.7 km/h 67 % 0 mm 262 W/m2
12:55 13.2 °C 7.4 °C 1020.9 hPa NW 14.5 km/h 20.9 km/h 68 % 0 mm 373 W/m2
13:00 13.3 °C 7.7 °C 1020.9 hPa WNW 6.4 km/h 12.9 km/h 69 % 0 mm 332 W/m2
13:05 13.4 °C 7.6 °C 1020.9 hPa WNW 8 km/h 19.3 km/h 68 % 0 mm 309 W/m2
13:10 13.5 °C 7.5 °C 1020.9 hPa NW 11.3 km/h 20.9 km/h 67 % 0 mm 121 W/m2
13:15 13.3 °C 7.3 °C 1020.9 hPa NNW 11.3 km/h 24.1 km/h 67 % 0 mm 141 W/m2
13:20 13.2 °C 7.6 °C 1021.2 hPa WNW 12.9 km/h 22.5 km/h 69 % 0 mm 299 W/m2
13:25 13.3 °C 7.7 °C 1021.2 hPa NNW 6.4 km/h 14.5 km/h 69 % 0 mm 334 W/m2
13:30 13.4 °C 7.6 °C 1021.2 hPa WNW 12.9 km/h 20.9 km/h 68 % 0 mm 399 W/m2
13:35 13.6 °C 7.4 °C 1021.2 hPa NW 20.9 km/h 30.6 km/h 66 % 0 mm 279 W/m2
13:40 13.4 °C 7.2 °C 1021.2 hPa NW 19.3 km/h 32.2 km/h 66 % 0 mm 186 W/m2
13:45 13.2 °C 6.8 °C 1021.2 hPa NW 16.1 km/h 29 km/h 65 % 0 mm 214 W/m2
13:50 13 °C 5.9 °C 1021.2 hPa NW 14.5 km/h 22.5 km/h 62 % 0 mm 220 W/m2
13:55 12.9 °C 5.8 °C 1021.2 hPa NW 11.3 km/h 22.5 km/h 62 % 0 mm 257 W/m2
14:00 12.9 °C 5.8 °C 1020.9 hPa NW 11.3 km/h 19.3 km/h 62 % 0 mm 207 W/m2
14:05 12.8 °C 5.7 °C 1020.9 hPa NW 9.7 km/h 16.1 km/h 62 % 0 mm 260 W/m2
14:10 12.8 °C 5.7 °C 1020.5 hPa WNW 11.3 km/h 19.3 km/h 62 % 0 mm 234 W/m2
14:15 12.8 °C 5.4 °C 1021.2 hPa WNW 11.3 km/h 17.7 km/h 61 % 0 mm 209 W/m2
14:20 12.8 °C 5.7 °C 1021.2 hPa WNW 12.9 km/h 20.9 km/h 62 % 0 mm 165 W/m2
14:25 12.7 °C 5.6 °C 1021.2 hPa WNW 19.3 km/h 30.6 km/h 62 % 0 mm 105 W/m2
14:30 12.4 °C 5.6 °C 1021.2 hPa WNW 9.7 km/h 19.3 km/h 63 % 0 mm 90 W/m2
14:35 12.4 °C 5.8 °C 1021.2 hPa WNW 9.7 km/h 19.3 km/h 64 % 0 mm 67 W/m2
14:40 12.2 °C 5.6 °C 1020.9 hPa WNW 12.9 km/h 24.1 km/h 64 % 0 mm 76 W/m2
14:45 12.1 °C 5.7 °C 1021.2 hPa WNW 11.3 km/h 20.9 km/h 65 % 0 mm 60 W/m2
14:50 11.9 °C 5.7 °C 1021.2 hPa WNW 12.9 km/h 22.5 km/h 66 % 0 mm 47 W/m2
14:55 11.7 °C 5.8 °C 1021.2 hPa WNW 14.5 km/h 22.5 km/h 67 % 0 mm 39 W/m2
15:00 11.6 °C 6.1 °C 1021.2 hPa WNW 11.3 km/h 17.7 km/h 69 % 0 mm 30 W/m2
15:05 11.5 °C 6.2 °C 1021.6 hPa NW 12.9 km/h 19.3 km/h 70 % 0 mm 44 W/m2
15:10 11.4 °C 6.3 °C 1021.6 hPa WNW 14.5 km/h 22.5 km/h 71 % 0 mm 46 W/m2
15:15 11.3 °C 6.4 °C 1021.6 hPa NW 16.1 km/h 29 km/h 72 % 0 mm 28 W/m2
15:20 11.2 °C 6.7 °C 1021.6 hPa WNW 12.9 km/h 19.3 km/h 74 % 0 mm 23 W/m2
15:25 11.1 °C 6.6 °C 1021.6 hPa WNW 14.5 km/h 20.9 km/h 74 % 0 mm 25 W/m2
15:30 11.1 °C 6.8 °C 1021.6 hPa WNW 14.5 km/h 24.1 km/h 75 % 0 mm 32 W/m2
15:35 11 °C 6.7 °C 1021.6 hPa West 12.9 km/h 17.7 km/h 75 % 0 mm 26 W/m2
15:40 10.9 °C 6.8 °C 1021.6 hPa West 9.7 km/h 14.5 km/h 76 % 0 mm 28 W/m2
15:45 10.8 °C 6.7 °C 1021.2 hPa West 9.7 km/h 16.1 km/h 76 % 0 mm 25 W/m2
15:50 10.7 °C 6.7 °C 1021.6 hPa NW 8 km/h 14.5 km/h 76 % 0 mm 19 W/m2
15:55 10.6 °C 6.7 °C 1021.9 hPa WNW 16.1 km/h 35.4 km/h 77 % 0 mm 16 W/m2
16:01 10.4 °C 6.6 °C 1022.2 hPa WNW 16.1 km/h 25.7 km/h 77 % 0 mm 9 W/m2
16:06 10.4 °C 6.6 °C 1021.9 hPa WNW 16.1 km/h 22.5 km/h 77 % 0 mm 7 W/m2
16:10 10.4 °C 6.6 °C 1021.6 hPa West 19.3 km/h 32.2 km/h 77 % 0 mm 5 W/m2
16:16 10.3 °C 6.4 °C 1021.6 hPa WNW 17.7 km/h 22.5 km/h 77 % 0 mm 0 W/m2
16:21 10.3 °C 6.4 °C 1021.2 hPa West 11.3 km/h 17.7 km/h 77 % 0 mm 0 W/m2
16:26 10.2 °C 6.3 °C 1021.2 hPa WNW 3.2 km/h 9.7 km/h 77 % 0 mm 5 W/m2
16:31 10.1 °C 6.4 °C 1021.2 hPa WNW 1.6 km/h 6.4 km/h 78 % 0 mm 0 W/m2
16:36 9.9 °C 6.2 °C 1021.2 hPa Calm   3.2 km/h 78 % 0 mm 0 W/m2
16:41 9.8 °C 6.3 °C 1021.6 hPa WNW 4.8 km/h 8 km/h 79 % 0 mm 0 W/m2
16:46 9.7 °C 6.2 °C 1021.6 hPa WNW 8 km/h 12.9 km/h 79 % 0 mm 0 W/m2
16:51 9.6 °C 6.1 °C 1021.6 hPa West 9.7 km/h 14.5 km/h 79 % 0 mm 0 W/m2
16:56 9.5 °C 6.2 °C 1021.6 hPa WNW 11.3 km/h 19.3 km/h 80 % 0 mm 0 W/m2
17:01 9.3 °C 6 °C 1021.6 hPa WNW 12.9 km/h 17.7 km/h 80 % 0 mm 0 W/m2
17:06 9.3 °C 6.2 °C 1021.2 hPa West 11.3 km/h 19.3 km/h 81 % 0 mm 0 W/m2
17:11 9.2 °C 6.1 °C 1021.6 hPa West 11.3 km/h 19.3 km/h 81 % 0 mm 0 W/m2
17:16 9.2 °C 6.1 °C 1021.6 hPa WNW 6.4 km/h 16.1 km/h 81 % 0 mm 0 W/m2
17:21 9.1 °C 6.2 °C 1021.6 hPa WNW 9.7 km/h 19.3 km/h 82 % 0 mm 0 W/m2
17:26 9.1 °C 6.2 °C 1021.6 hPa West 9.7 km/h 17.7 km/h 82 % 0 mm 0 W/m2
17:31 9.1 °C 6.2 °C 1021.6 hPa WSW 4.8 km/h 9.7 km/h 82 % 0 mm 0 W/m2
17:36 9.1 °C 6.2 °C 1021.6 hPa WSW 4.8 km/h 9.7 km/h 82 % 0 mm 0 W/m2
17:41 8.9 °C 6 °C 1021.6 hPa West 8 km/h 14.5 km/h 82 % 0 mm 0 W/m2
17:46 8.9 °C 6 °C 1021.6 hPa West 8 km/h 14.5 km/h 82 % 0 mm 0 W/m2
17:51 8.8 °C 5.9 °C 1021.6 hPa WSW 11.3 km/h 16.1 km/h 82 % 0 mm 0 W/m2
17:56 8.8 °C 5.9 °C 1021.6 hPa West 8 km/h 17.7 km/h 82 % 0 mm 0 W/m2
18:01 8.8 °C 5.9 °C 1021.6 hPa WSW 8 km/h 11.3 km/h 82 % 0 mm 0 W/m2
18:06 8.8 °C 5.9 °C 1021.6 hPa West 8 km/h 14.5 km/h 82 % 0 mm 0 W/m2
18:07 8.8 °C 5.9 °C 1021.6 hPa West 6.4 km/h 12.9 km/h 82 % 0 mm 0 W/m2
18:12 8.8 °C 5.9 °C 1021.6 hPa West 6.4 km/h 11.3 km/h 82 % 0 mm 0 W/m2
18:17 8.7 °C 5.8 °C 1021.2 hPa West 8 km/h 12.9 km/h 82 % 0 mm 0 W/m2
18:22 8.6 °C 5.7 °C 1021.6 hPa WNW 4.8 km/h 9.7 km/h 82 % 0 mm 0 W/m2
18:27 8.6 °C 5.7 °C 1021.2 hPa West 4.8 km/h 11.3 km/h 82 % 0 mm 0 W/m2
18:32 8.5 °C 5.6 °C 1021.2 hPa WNW 3.2 km/h 8 km/h 82 % 0 mm 0 W/m2
18:37 8.4 °C 5.5 °C 1021.6 hPa West 3.2 km/h 6.4 km/h 82 % 0 mm 0 W/m2
18:42 8.3 °C 5.4 °C 1021.9 hPa WNW 1.6 km/h 8 km/h 82 % 0 mm 0 W/m2
18:44 8.2 °C 5.3 °C 1021.9 hPa WNW 3.2 km/h 11.3 km/h 82 % 0 mm 0 W/m2
18:49 8.2 °C 5.5 °C 1021.9 hPa West 3.2 km/h 6.4 km/h 83 % 0 mm 0 W/m2
18:50 8.2 °C 5.3 °C 1021.9 hPa West 1.6 km/h 6.4 km/h 82 % 0 mm 0 W/m2
18:55 8.1 °C 5.2 °C 1021.9 hPa West 1.6 km/h 6.4 km/h 82 % 0 mm 0 W/m2
18:56 8.1 °C 5.2 °C 1021.9 hPa West 3.2 km/h 6.4 km/h 82 % 0 mm 0 W/m2
19:01 8.1 °C 5.2 °C 1021.9 hPa WSW 9.7 km/h 16.1 km/h 82 % 0 mm 0 W/m2
19:06 8.1 °C 5.2 °C 1021.9 hPa WNW 8 km/h 14.5 km/h 82 % 0 mm 0 W/m2
19:11 8.1 °C 5.2 °C 1021.6 hPa WNW 9.7 km/h 12.9 km/h 82 % 0 mm 0 W/m2
19:16 8.1 °C 5.4 °C 1021.6 hPa WNW 11.3 km/h 17.7 km/h 83 % 0 mm 0 W/m2
19:21 8.2 °C 5.5 °C 1021.2 hPa West 12.9 km/h 17.7 km/h 83 % 0 mm 0 W/m2
19:26 8.2 °C 5.5 °C 1021.2 hPa West 14.5 km/h 22.5 km/h 83 % 0 mm 0 W/m2
19:31 8.2 °C 5.3 °C 1020.9 hPa WNW 11.3 km/h 14.5 km/h 82 % 0 mm 0 W/m2
19:36 8.2 °C 5.3 °C 1020.9 hPa West 11.3 km/h 16.1 km/h 82 % 0 mm 0 W/m2
19:41 8.2 °C 5.1 °C 1020.9 hPa West 11.3 km/h 17.7 km/h 81 % 0 mm 0 W/m2
19:47 8.3 °C 5.2 °C 1020.9 hPa West 9.7 km/h 14.5 km/h 81 % 0 mm 0 W/m2
19:52 8.3 °C 5.1 °C 1021.2 hPa West 6.4 km/h 12.9 km/h 80 % 0 mm 0 W/m2
19:57 8.3 °C 5.1 °C 1020.9 hPa WNW 11.3 km/h 19.3 km/h 80 % 0 mm 0 W/m2
20:02 8.3 °C 5.1 °C 1021.2 hPa West 11.3 km/h 17.7 km/h 80 % 0 mm 0 W/m2
20:07 8.3 °C 5.1 °C 1021.2 hPa West 12.9 km/h 17.7 km/h 80 % 0 mm 0 W/m2
20:12 8.4 °C 5.2 °C 1021.2 hPa WNW 12.9 km/h 17.7 km/h 80 % 0 mm 0 W/m2
20:17 8.4 °C 5.2 °C 1021.2 hPa West 11.3 km/h 17.7 km/h 80 % 0 mm 0 W/m2
20:22 8.5 °C 5.2 °C 1020.9 hPa West 12.9 km/h 19.3 km/h 80 % 0 mm 0 W/m2
20:27 8.6 °C 5.3 °C 1020.9 hPa WNW 16.1 km/h 24.1 km/h 80 % 0 mm 0 W/m2
20:32 8.7 °C 5.4 °C 1020.9 hPa WNW 12.9 km/h 19.3 km/h 80 % 0 mm 0 W/m2
20:37 8.7 °C 5.4 °C 1020.9 hPa WNW 14.5 km/h 19.3 km/h 80 % 0 mm 0 W/m2
20:42 8.8 °C 5.6 °C 1020.5 hPa West 12.9 km/h 20.9 km/h 80 % 0 mm 0 W/m2
20:47 8.8 °C 5.6 °C 1020.5 hPa WNW 14.5 km/h 24.1 km/h 80 % 0 mm 0 W/m2
20:52 8.8 °C 5.3 °C 1020.5 hPa WNW 14.5 km/h 25.7 km/h 79 % 0 mm 0 W/m2
20:57 8.9 °C 5.4 °C 1020.5 hPa WNW 16.1 km/h 25.7 km/h 79 % 0 mm 0 W/m2
21:02 9 °C 5.6 °C 1020.2 hPa WNW 12.9 km/h 22.5 km/h 79 % 0 mm 0 W/m2
21:07 9 °C 5.6 °C 1020.2 hPa WNW 14.5 km/h 22.5 km/h 79 % 0 mm 0 W/m2
21:12 9.1 °C 5.7 °C 1020.2 hPa WNW 12.9 km/h 20.9 km/h 79 % 0 mm 0 W/m2
21:17 9.1 °C 5.7 °C 1019.9 hPa West 17.7 km/h 24.1 km/h 79 % 0 mm 0 W/m2
21:22 9.1 °C 5.7 °C 1019.9 hPa WNW 16.1 km/h 25.7 km/h 79 % 0 mm 0 W/m2
21:27 9.1 °C 5.7 °C 1019.5 hPa WNW 19.3 km/h 24.1 km/h 79 % 0 mm 0 W/m2
21:32 9.1 °C 5.7 °C 1019.5 hPa WNW 14.5 km/h 19.3 km/h 79 % 0 mm 0 W/m2
21:37 9.1 °C 5.7 °C 1019.5 hPa WNW 14.5 km/h 24.1 km/h 79 % 0 mm 0 W/m2
21:42 9.1 °C 5.7 °C 1019.5 hPa WNW 12.9 km/h 20.9 km/h 79 % 0 mm 0 W/m2
21:47 9.1 °C 5.7 °C 1019.5 hPa WNW 14.5 km/h 20.9 km/h 79 % 0 mm 0 W/m2
21:52 9.1 °C 5.7 °C 1019.2 hPa WNW 11.3 km/h 16.1 km/h 79 % 0 mm 0 W/m2
21:57 9.1 °C 5.7 °C 1019.2 hPa West 9.7 km/h 20.9 km/h 79 % 0 mm 0 W/m2
22:02 9 °C 5.6 °C 1019.2 hPa West 6.4 km/h 9.7 km/h 79 % 0 mm 0 W/m2
22:07 9 °C 5.6 °C 1019.2 hPa SW 8 km/h 12.9 km/h 79 % 0 mm 0 W/m2
22:12 8.9 °C 5.3 °C 1019.2 hPa WSW 12.9 km/h 17.7 km/h 78 % 0 mm 0 W/m2
22:17 8.9 °C 5.4 °C 1018.8 hPa WSW 9.7 km/h 14.5 km/h 79 % 0 mm 0 W/m2
22:22 8.8 °C 5.3 °C 1018.8 hPa WSW 11.3 km/h 22.5 km/h 79 % 0 mm 0 W/m2
22:27 8.8 °C 5.3 °C 1018.8 hPa WSW 9.7 km/h 14.5 km/h 79 % 0 mm 0 W/m2
22:32 8.7 °C 5.4 °C 1018.8 hPa SW 8 km/h 12.9 km/h 80 % 0 mm 0 W/m2
22:37 8.7 °C 5.4 °C 1018.8 hPa West 3.2 km/h 8 km/h 80 % 0 mm 0 W/m2
22:42 8.7 °C 5.4 °C 1018.8 hPa Calm   4.8 km/h 80 % 0 mm 0 W/m2
22:47 8.7 °C 5.6 °C 1018.8 hPa West 11.3 km/h 24.1 km/h 81 % 0 mm 0 W/m2
22:52 8.8 °C 5.7 °C 1018.5 hPa WSW 20.9 km/h 32.2 km/h 81 % 0 mm 0 W/m2
22:58 8.8 °C 5.7 °C 1018.5 hPa West 17.7 km/h 25.7 km/h 81 % 0 mm 0 W/m2
23:03 8.8 °C 5.9 °C 1018.2 hPa West 16.1 km/h 29 km/h 82 % 0 mm 0 W/m2
23:08 8.7 °C 6 °C 1018.2 hPa West 11.3 km/h 19.3 km/h 83 % 0 mm 0 W/m2
23:13 8.7 °C 6 °C 1018.2 hPa West 14.5 km/h 29 km/h 83 % 0 mm 0 W/m2
23:18 8.7 °C 6 °C 1017.8 hPa West 19.3 km/h 33.8 km/h 83 % 0 mm 0 W/m2
23:23 8.7 °C 6 °C 1017.8 hPa West 17.7 km/h 24.1 km/h 83 % 0 mm 0 W/m2
23:28 8.7 °C 6 °C 1017.8 hPa West 14.5 km/h 29 km/h 83 % 0 mm 0 W/m2
23:33 8.6 °C 5.9 °C 1017.5 hPa West 11.3 km/h 20.9 km/h 83 % 0 mm 0 W/m2
23:38 8.6 °C 5.9 °C 1017.8 hPa WSW 16.1 km/h 24.1 km/h 83 % 0 mm 0 W/m2
23:43 8.7 °C 6 °C 1017.8 hPa West 11.3 km/h 20.9 km/h 83 % 0 mm 0 W/m2
23:48 8.7 °C 5.8 °C 1017.5 hPa West 17.7 km/h 29 km/h 82 % 0 mm 0 W/m2
23:53 8.8 °C 5.9 °C 1017.5 hPa WSW 16.1 km/h 22.5 km/h 82 % 0 mm 0 W/m2
23:58 8.8 °C 5.9 °C 1017.2 hPa WSW 14.5 km/h 19.3 km/h 82 % 0 mm 0 W/m2
Delerius-Weather
Compliments of Weather Underground - 2.25 mb

Data updates at regular intervals.